Time;durP1;ratioP1;P1;durP2;ratioP2;P2;SDS_P1;SDS_P2;PMS_P1;PMS_P2;Temp;Humidity;BMP_temperature;BMP_pressure;BME280_temperature;BME280_humidity;BME280_pressure;Samples;Min_cycle;Max_cycle;Signal;HPM_P1;HPM_P2
2022/09/02 00:01:52;;;;;;;3.85;1.23;;;14.60;99.90;;;;;;7395568;19;20018;-74
2022/09/02 00:04:21;;;;;;;2.92;1.10;;;14.60;99.90;;;;;;7397337;19;20377;-76
2022/09/02 00:06:49;;;;;;;5.18;1.40;;;14.60;99.90;;;;;;7399472;19;20019;-75
2022/09/02 00:09:18;;;;;;;2.60;1.23;;;14.60;99.90;;;;;;7399216;19;20017;-74
2022/09/02 00:11:46;;;;;;;2.50;1.10;;;14.60;99.90;;;;;;7399475;19;20047;-74
2022/09/02 00:14:21;;;;;;;3.88;1.15;;;14.60;99.90;;;;;;7398094;19;20480;-74
2022/09/02 00:16:50;;;;;;;3.25;1.00;;;14.50;99.90;;;;;;7399390;19;20540;-75
2022/09/02 00:19:19;;;;;;;4.30;1.30;;;14.50;99.90;;;;;;7398719;19;20047;-74
2022/09/02 00:21:46;;;;;;;1.65;1.13;;;14.50;99.90;;;;;;7397674;19;20230;-75
2022/09/02 00:24:11;;;;;;;3.08;1.13;;;14.50;99.90;;;;;;7398031;19;20109;-75
2022/09/02 00:26:37;;;;;;;2.05;1.30;;;14.50;99.90;;;;;;7399180;19;20030;-75
2022/09/02 00:29:04;;;;;;;4.90;1.02;;;14.40;99.90;;;;;;7399137;19;20389;-75
2022/09/02 00:31:32;;;;;;;1.92;1.23;;;14.40;99.90;;;;;;7397429;19;20007;-74
2022/09/02 00:33:59;;;;;;;2.50;1.20;;;14.40;99.90;;;;;;7397835;19;20453;-75
2022/09/02 00:36:25;;;;;;;2.55;1.10;;;14.40;99.90;;;;;;7398436;19;20031;-75
2022/09/02 00:38:51;;;;;;;1.48;1.20;;;14.40;99.90;;;;;;7397739;19;20350;-74
2022/09/02 00:41:20;;;;;;;1.95;1.20;;;14.30;99.90;;;;;;7398016;19;20015;-74
2022/09/02 00:44:00;;;;;;;2.13;1.20;;;14.30;99.90;;;;;;7396142;19;20014;-74
2022/09/02 00:46:28;;;;;;;3.08;1.20;;;14.30;99.90;;;;;;7395309;19;20033;-74
2022/09/02 00:49:06;;;;;;;2.90;1.33;;;14.30;99.90;;;;;;7399223;19;20096;-74
2022/09/02 00:51:45;;;;;;;1.85;1.20;;;14.30;99.90;;;;;;7396598;19;20022;-74
2022/09/02 00:54:13;;;;;;;2.50;1.17;;;14.20;99.90;;;;;;7397493;19;20018;-75
2022/09/02 00:56:42;;;;;;;1.25;1.05;;;14.20;99.90;;;;;;7395586;19;20074;-74
2022/09/02 00:59:12;;;;;;;2.67;1.10;;;14.10;99.90;;;;;;7395195;19;20105;-74
2022/09/02 01:01:38;;;;;;;2.60;1.08;;;14.10;99.90;;;;;;7397504;19;20025;-74
2022/09/02 01:04:05;;;;;;;2.67;1.15;;;14.10;99.90;;;;;;7396601;19;20018;-74
2022/09/02 01:06:32;;;;;;;2.90;1.35;;;14.10;99.90;;;;;;7396859;19;20019;-74
2022/09/02 01:09:07;;;;;;;1.85;1.20;;;14.10;99.90;;;;;;7397496;19;20015;-74
2022/09/02 01:11:42;;;;;;;1.85;1.25;;;14.10;99.90;;;;;;7397260;19;20094;-74
2022/09/02 01:14:11;;;;;;;4.85;1.40;;;14.00;99.90;;;;;;7396732;19;20362;-74
2022/09/02 01:16:47;;;;;;;2.55;1.30;;;14.00;99.90;;;;;;7397507;19;20097;-74
2022/09/02 01:19:19;;;;;;;4.22;1.50;;;14.00;99.90;;;;;;7397682;19;20026;-74
2022/09/02 01:21:47;;;;;;;3.00;1.42;;;14.00;99.90;;;;;;7394305;19;20349;-74
2022/09/02 01:24:14;;;;;;;3.30;1.40;;;13.90;99.90;;;;;;7396334;19;20031;-74
2022/09/02 01:26:40;;;;;;;3.30;1.35;;;13.90;99.90;;;;;;7395242;19;20030;-74
2022/09/02 01:29:06;;;;;;;3.40;1.20;;;13.80;99.90;;;;;;7397113;19;20014;-73
2022/09/02 01:31:31;;;;;;;1.73;1.38;;;13.80;99.90;;;;;;7396124;19;20345;-75
2022/09/02 01:33:58;;;;;;;4.53;1.45;;;13.80;99.90;;;;;;7395998;19;20077;-74
2022/09/02 01:36:24;;;;;;;2.17;1.50;;;13.80;99.90;;;;;;7396698;19;20015;-74
2022/09/02 01:38:50;;;;;;;3.30;1.73;;;13.70;99.90;;;;;;7395356;19;20074;-74
2022/09/02 01:41:15;;;;;;;3.38;1.52;;;13.70;99.90;;;;;;7397212;19;20515;-74
2022/09/02 01:43:41;;;;;;;3.15;1.50;;;13.60;99.90;;;;;;7394220;19;20032;-74
2022/09/02 01:46:08;;;;;;;2.47;1.40;;;13.60;99.90;;;;;;7397186;19;20014;-73
2022/09/02 01:48:34;;;;;;;2.17;1.58;;;13.60;99.90;;;;;;7395421;19;20046;-74
2022/09/02 01:51:02;;;;;;;2.13;1.45;;;13.50;99.90;;;;;;7393646;19;20015;-73
2022/09/02 01:53:29;;;;;;;2.33;1.40;;;13.50;99.90;;;;;;7394590;19;20025;-73
2022/09/02 01:55:55;;;;;;;2.75;1.50;;;13.50;99.90;;;;;;7392029;19;20032;-73
2022/09/02 01:58:22;;;;;;;1.70;1.33;;;13.40;99.90;;;;;;7395184;19;20026;-73
2022/09/02 02:00:48;;;;;;;3.25;1.85;;;13.40;99.90;;;;;;7394745;19;20094;-73
2022/09/02 02:03:14;;;;;;;2.78;1.60;;;13.40;99.90;;;;;;7394420;19;20035;-73
2022/09/02 02:05:40;;;;;;;2.53;1.55;;;13.40;99.90;;;;;;7395858;19;20007;-73
2022/09/02 02:08:07;;;;;;;3.30;1.75;;;13.30;99.90;;;;;;7394595;19;20029;-73
2022/09/02 02:10:34;;;;;;;3.63;1.60;;;13.30;99.90;;;;;;7395675;19;20014;-73
2022/09/02 02:13:01;;;;;;;3.95;1.63;;;13.30;99.90;;;;;;7392931;19;20081;-74
2022/09/02 02:15:27;;;;;;;2.55;1.67;;;13.20;99.90;;;;;;7394166;19;20487;-73
2022/09/02 02:17:53;;;;;;;2.70;1.70;;;13.30;99.90;;;;;;7395252;19;20023;-73
2022/09/02 02:20:20;;;;;;;2.80;1.67;;;13.20;99.90;;;;;;7395677;19;20011;-73
2022/09/02 02:23:07;;;;;;;2.63;1.67;;;13.20;99.90;;;;;;7390831;19;20018;-74
2022/09/02 02:25:33;;;;;;;3.97;1.80;;;13.10;99.90;;;;;;7392986;19;20041;-73
2022/09/02 02:27:59;;;;;;;2.38;1.73;;;13.10;99.90;;;;;;7393972;19;20048;-73
2022/09/02 02:30:25;;;;;;;3.47;1.60;;;13.00;99.90;;;;;;7394476;19;20350;-73
2022/09/02 02:32:50;;;;;;;4.20;1.92;;;13.00;99.90;;;;;;7394252;19;20389;-73
2022/09/02 02:35:18;;;;;;;2.05;1.50;;;12.90;99.90;;;;;;7397697;19;20359;-73
2022/09/02 02:37:47;;;;;;;3.53;1.92;;;12.90;99.90;;;;;;7401887;19;20019;-73
2022/09/02 02:40:20;;;;;;;5.00;1.90;;;12.90;99.90;;;;;;7403071;19;20078;-73
2022/09/02 02:42:47;;;;;;;3.95;1.90;;;12.80;99.90;;;;;;7401622;19;20038;-73
2022/09/02 02:45:13;;;;;;;2.75;1.80;;;12.80;99.90;;;;;;7403398;19;20018;-74
2022/09/02 02:47:41;;;;;;;2.28;1.80;;;12.80;99.90;;;;;;7403166;19;20492;-74
2022/09/02 02:50:10;;;;;;;4.40;1.85;;;12.80;99.90;;;;;;7400694;19;20022;-73
2022/09/02 02:52:39;;;;;;;3.80;2.30;;;12.80;99.90;;;;;;7399333;19;20022;-74
2022/09/02 02:55:05;;;;;;;4.18;2.05;;;12.70;99.90;;;;;;7399949;19;20372;-73
2022/09/02 02:57:33;;;;;;;4.07;2.17;;;12.70;99.90;;;;;;7399562;19;20019;-74
2022/09/02 03:00:09;;;;;;;5.05;1.85;;;12.70;99.90;;;;;;7401724;19;20349;-73
2022/09/02 03:02:35;;;;;;;4.22;2.33;;;12.60;99.90;;;;;;7401044;19;20018;-73
2022/09/02 03:05:04;;;;;;;4.55;2.35;;;12.60;99.90;;;;;;7400730;19;20018;-73
2022/09/02 03:07:30;;;;;;;3.83;2.53;;;12.60;99.90;;;;;;7400191;19;20086;-73
2022/09/02 03:09:56;;;;;;;3.25;2.10;;;12.50;99.90;;;;;;7399789;19;20584;-73
2022/09/02 03:12:23;;;;;;;2.20;1.70;;;12.50;99.90;;;;;;7399130;19;20011;-73
2022/09/02 03:14:51;;;;;;;3.28;2.00;;;12.50;99.90;;;;;;7399441;19;20022;-73
2022/09/02 03:17:17;;;;;;;2.80;2.40;;;12.50;99.90;;;;;;7401234;19;20042;-74
2022/09/02 03:19:42;;;;;;;3.70;2.00;;;12.50;99.90;;;;;;7398455;19;20018;-73
2022/09/02 03:22:09;;;;;;;6.28;2.00;;;12.40;99.90;;;;;;7397349;19;20019;-73
2022/09/02 03:24:37;;;;;;;2.00;1.90;;;12.40;99.90;;;;;;7401012;19;20090;-73
2022/09/02 03:27:03;;;;;;;3.50;2.10;;;12.40;99.90;;;;;;7399345;19;20014;-73
2022/09/02 03:29:29;;;;;;;3.00;2.00;;;12.30;99.90;;;;;;7400747;19;20014;-74
2022/09/02 03:31:56;;;;;;;6.35;2.10;;;12.30;99.90;;;;;;7400163;19;20039;-74
2022/09/02 03:34:22;;;;;;;2.80;1.83;;;12.30;99.90;;;;;;7401586;19;20018;-74
2022/09/02 03:36:47;;;;;;;2.08;1.80;;;12.20;99.90;;;;;;7399191;19;20103;-75
2022/09/02 03:39:13;;;;;;;5.15;1.90;;;12.20;99.90;;;;;;7398174;19;20015;-74
2022/09/02 03:41:42;;;;;;;3.00;2.05;;;12.20;99.90;;;;;;7399754;19;20472;-74
2022/09/02 03:44:09;;;;;;;3.40;2.00;;;12.20;99.90;;;;;;7399135;19;20018;-73
2022/09/02 03:46:35;;;;;;;2.22;2.03;;;12.20;99.90;;;;;;7394828;19;20043;-74
2022/09/02 03:49:02;;;;;;;4.28;2.20;;;12.20;99.90;;;;;;7395330;19;20018;-73
2022/09/02 03:51:29;;;;;;;2.22;2.00;;;12.20;99.90;;;;;;7395450;19;20018;-74
2022/09/02 03:53:55;;;;;;;2.10;1.90;;;12.20;99.90;;;;;;7396642;19;20015;-74
2022/09/02 03:56:21;;;;;;;3.78;1.98;;;12.10;99.90;;;;;;7396015;19;20031;-74
2022/09/02 03:58:49;;;;;;;3.40;2.13;;;12.10;99.90;;;;;;7395878;19;20499;-73
2022/09/02 04:01:18;;;;;;;2.45;2.25;;;12.10;99.90;;;;;;7397959;19;20037;-74
2022/09/02 04:03:45;;;;;;;2.95;2.30;;;12.10;99.90;;;;;;7400253;19;20007;-74
2022/09/02 04:06:14;;;;;;;2.95;2.28;;;12.10;99.90;;;;;;7396320;19;20368;-74
2022/09/02 04:08:42;;;;;;;2.83;2.10;;;12.10;99.90;;;;;;7399012;19;20007;-74
2022/09/02 04:11:11;;;;;;;3.22;2.00;;;12.00;99.90;;;;;;7396249;19;20021;-74
2022/09/02 04:13:38;;;;;;;4.15;2.17;;;12.00;99.90;;;;;;7394795;19;20109;-74
2022/09/02 04:16:12;;;;;;;4.93;2.30;;;12.00;99.90;;;;;;7394567;19;20377;-74
2022/09/02 04:18:39;;;;;;;3.38;2.10;;;11.90;99.90;;;;;;7400222;19;20014;-74
2022/09/02 04:21:05;;;;;;;3.45;2.40;;;11.90;99.90;;;;;;7395009;19;20014;-74
2022/09/02 04:23:31;;;;;;;2.50;2.30;;;11.90;99.90;;;;;;7394416;19;20074;-75
2022/09/02 04:25:58;;;;;;;3.60;2.40;;;11.90;99.90;;;;;;7396135;19;20027;-74
2022/09/02 04:28:24;;;;;;;3.90;2.42;;;11.80;99.90;;;;;;7395486;19;20017;-74
2022/09/02 04:30:50;;;;;;;4.47;2.50;;;11.80;99.90;;;;;;7394419;19;20348;-74
2022/09/02 04:33:16;;;;;;;5.72;2.60;;;11.80;99.90;;;;;;7394052;19;20640;-74
2022/09/02 04:35:44;;;;;;;3.22;2.33;;;11.80;99.90;;;;;;7400233;19;20018;-74
2022/09/02 04:38:11;;;;;;;2.53;2.33;;;11.70;99.90;;;;;;7395756;19;20021;-74
2022/09/02 04:40:45;;;;;;;2.58;2.08;;;11.70;99.90;;;;;;7397473;19;20034;-74
2022/09/02 04:43:12;;;;;;;3.72;2.63;;;11.70;99.90;;;;;;7398763;19;20504;-74
2022/09/02 04:45:39;;;;;;;2.70;2.28;;;11.70;99.90;;;;;;7395430;19;20031;-75
2022/09/02 04:48:06;;;;;;;3.33;2.75;;;11.70;99.90;;;;;;7395498;19;20043;-74
2022/09/02 04:50:31;;;;;;;3.00;2.63;;;11.70;99.90;;;;;;7394268;19;20074;-74
2022/09/02 04:52:58;;;;;;;3.38;2.50;;;11.60;99.90;;;;;;7396657;19;20019;-73
2022/09/02 04:55:24;;;;;;;3.13;2.25;;;11.60;99.90;;;;;;7397591;19;20052;-73
2022/09/02 04:57:50;;;;;;;3.58;2.50;;;11.60;99.90;;;;;;7390738;19;20045;-73
2022/09/02 05:00:17;;;;;;;2.47;2.28;;;11.60;99.90;;;;;;7395161;19;20007;-73
2022/09/02 05:02:44;;;;;;;3.63;2.80;;;11.60;99.90;;;;;;7397067;19;20018;-74
2022/09/02 05:05:10;;;;;;;3.97;2.58;;;11.60;99.90;;;;;;7397219;19;20039;-74
2022/09/02 05:07:37;;;;;;;4.35;2.38;;;11.60;99.90;;;;;;7397492;19;20043;-73
2022/09/02 05:10:04;;;;;;;3.20;2.42;;;11.60;99.90;;;;;;7395130;19;20095;-73
2022/09/02 05:12:31;;;;;;;2.88;2.28;;;11.70;99.90;;;;;;7391670;19;20018;-74
2022/09/02 05:14:59;;;;;;;3.90;2.55;;;11.60;99.90;;;;;;7396754;19;20386;-73
2022/09/02 05:17:31;;;;;;;2.50;2.20;;;11.70;99.90;;;;;;7397625;19;20038;-73
2022/09/02 05:19:58;;;;;;;2.63;2.40;;;11.70;99.90;;;;;;7397457;19;20021;-73
2022/09/02 05:22:25;;;;;;;4.50;2.25;;;11.70;99.90;;;;;;7391400;19;20006;-74
2022/09/02 05:24:50;;;;;;;4.55;2.40;;;11.70;99.90;;;;;;7391563;19;20010;-73
2022/09/02 05:27:16;;;;;;;3.63;2.67;;;11.80;99.90;;;;;;7396441;19;20074;-73
2022/09/02 05:29:42;;;;;;;3.42;1.95;;;11.80;99.90;;;;;;7396502;19;20352;-73
2022/09/02 05:32:08;;;;;;;3.47;2.30;;;11.80;99.90;;;;;;7396213;19;20475;-73
2022/09/02 05:34:35;;;;;;;2.67;2.33;;;11.80;99.90;;;;;;7395985;19;20022;-74
2022/09/02 05:37:02;;;;;;;4.75;2.60;;;11.80;99.90;;;;;;7394017;19;20014;-73
2022/09/02 05:39:29;;;;;;;3.25;2.45;;;11.90;99.90;;;;;;7396005;19;20027;-74
2022/09/02 05:41:55;;;;;;;3.78;2.72;;;11.90;99.90;;;;;;7394298;19;20006;-74
2022/09/02 05:44:21;;;;;;;2.67;2.42;;;12.20;99.90;;;;;;7395684;19;20066;-74
2022/09/02 05:46:47;;;;;;;3.53;2.50;;;12.60;99.90;;;;;;7393174;19;20092;-75
2022/09/02 05:49:16;;;;;;;3.42;2.20;;;12.80;99.90;;;;;;7391866;19;20500;-74
2022/09/02 05:51:45;;;;;;;4.60;2.30;;;12.70;99.90;;;;;;7396349;19;20035;-74
2022/09/02 05:54:18;;;;;;;3.25;2.20;;;12.60;99.90;;;;;;7391042;19;20035;-74
2022/09/02 05:56:48;;;;;;;2.55;2.15;;;12.60;99.90;;;;;;7393770;19;20014;-75
2022/09/02 05:59:15;;;;;;;4.43;2.83;;;12.60;99.90;;;;;;7394556;19;20022;-74
2022/09/02 06:01:41;;;;;;;2.78;2.30;;;12.60;99.90;;;;;;7393089;19;20070;-74
2022/09/02 06:04:07;;;;;;;3.22;2.35;;;12.60;99.90;;;;;;7393135;19;20387;-82
2022/09/02 06:06:36;;;;;;;3.72;2.30;;;12.60;99.90;;;;;;7392794;19;20372;-80
2022/09/02 06:09:04;;;;;;;3.30;2.35;;;12.70;99.90;;;;;;7394480;19;20018;-74
2022/09/02 06:11:30;;;;;;;2.60;2.30;;;12.70;99.90;;;;;;7393525;19;20019;-76
2022/09/02 06:13:56;;;;;;;6.25;2.83;;;12.80;99.90;;;;;;7392965;19;20036;-75
2022/09/02 06:16:22;;;;;;;3.35;2.20;;;12.80;99.90;;;;;;7394090;19;20391;-76
2022/09/02 06:18:50;;;;;;;4.30;2.22;;;12.90;99.90;;;;;;7394430;19;20089;-76
2022/09/02 06:21:17;;;;;;;6.72;2.25;;;13.00;99.90;;;;;;7391591;19;20002;-76
2022/09/02 06:23:43;;;;;;;6.65;2.20;;;13.10;99.90;;;;;;7393108;19;20078;-76
2022/09/02 06:26:11;;;;;;;5.55;2.28;;;13.20;99.90;;;;;;7391726;19;20028;-76
2022/09/02 06:28:37;;;;;;;3.65;2.25;;;13.40;99.90;;;;;;7391231;19;20015;-76
2022/09/02 06:31:09;;;;;;;5.28;2.10;;;13.50;99.90;;;;;;7393381;19;20074;-76
2022/09/02 06:33:36;;;;;;;4.90;2.10;;;13.50;99.90;;;;;;7393394;19;20388;-75
2022/09/02 06:36:06;;;;;;;3.70;2.13;;;13.60;99.90;;;;;;7393704;19;20025;-75
2022/09/02 06:38:36;;;;;;;2.53;2.10;;;13.70;99.90;;;;;;7393068;19;20014;-76
2022/09/02 06:41:02;;;;;;;3.55;1.95;;;13.80;99.90;;;;;;7391632;19;20022;-76
2022/09/02 06:43:28;;;;;;;4.65;2.00;;;13.90;99.90;;;;;;7391319;19;20511;-76
2022/09/02 06:45:54;;;;;;;5.03;2.10;;;14.00;99.90;;;;;;7393200;19;20478;-76
2022/09/02 06:48:20;;;;;;;3.10;1.98;;;14.00;99.90;;;;;;7393514;19;20018;-76
2022/09/02 06:50:46;;;;;;;4.25;1.90;;;14.10;99.90;;;;;;7391053;19;20464;-76
2022/09/02 06:53:13;;;;;;;3.95;1.75;;;14.20;99.90;;;;;;7391692;19;20018;-76
2022/09/02 06:55:43;;;;;;;10.70;2.45;;;14.40;99.90;;;;;;7390588;19;20475;-76
2022/09/02 06:58:09;;;;;;;4.47;1.90;;;14.50;99.90;;;;;;7393693;19;20014;-76
2022/09/02 07:00:36;;;;;;;2.70;1.73;;;14.60;99.90;;;;;;7390727;19;20018;-76
2022/09/02 07:05:59;;;;;;;3.58;1.70;;;15.20;99.90;;;;;;7395421;19;20021;-76
2022/09/02 07:08:24;;;;;;;2.72;1.88;;;15.50;99.90;;;;;;7394147;19;20022;-76
2022/09/02 07:10:50;;;;;;;4.28;1.80;;;15.80;99.90;;;;;;7392644;19;20026;-76
2022/09/02 07:13:16;;;;;;;2.72;1.88;;;15.70;99.90;;;;;;7391579;19;20883;-76
2022/09/02 07:15:42;;;;;;;2.55;1.60;;;15.60;99.90;;;;;;7392154;19;20022;-76
2022/09/02 07:18:08;;;;;;;3.25;1.77;;;15.60;99.90;;;;;;7389545;19;20011;-76
2022/09/02 07:20:35;;;;;;;4.85;1.80;;;15.70;99.90;;;;;;7392881;19;20364;-77
2022/09/02 07:23:00;;;;;;;2.85;1.70;;;16.00;99.90;;;;;;7395667;19;20485;-77
2022/09/02 07:25:26;;;;;;;2.33;1.55;;;16.60;99.90;;;;;;7397391;19;20082;-77
2022/09/02 07:27:53;;;;;;;3.28;1.60;;;17.20;99.90;;;;;;7400665;19;20039;-77
2022/09/02 07:30:19;;;;;;;3.03;1.50;;;18.20;99.90;;;;;;7397524;19;20025;-78
2022/09/02 07:32:45;;;;;;;1.60;1.45;;;19.20;99.90;;;;;;7398556;19;20015;-77
2022/09/02 07:35:11;;;;;;;3.10;1.30;;;20.10;99.90;;;;;;7399531;19;20114;-77
2022/09/02 07:37:37;;;;;;;2.00;1.58;;;20.80;99.90;;;;;;7399658;19;20086;-77
2022/09/02 07:40:05;;;;;;;3.35;1.50;;;20.90;99.90;;;;;;7398431;19;20070;-78
2022/09/02 07:42:31;;;;;;;2.42;1.30;;;21.30;99.90;;;;;;7398809;19;20042;-77
2022/09/02 07:44:57;;;;;;;6.28;1.70;;;21.90;99.90;;;;;;7397520;19;20018;-77
2022/09/02 07:47:23;;;;;;;3.08;1.40;;;22.00;99.90;;;;;;7398639;19;20014;-77
2022/09/02 07:49:50;;;;;;;3.97;1.40;;;22.40;99.90;;;;;;7396770;19;20039;-77
2022/09/02 07:52:16;;;;;;;4.30;1.70;;;22.30;99.90;;;;;;7396274;19;20026;-77
2022/09/02 07:54:42;;;;;;;2.83;1.50;;;22.60;99.90;;;;;;7392717;19;20014;-78
2022/09/02 07:57:08;;;;;;;3.05;1.48;;;22.60;99.60;;;;;;7396419;19;20014;-77
2022/09/02 07:59:34;;;;;;;3.03;1.70;;;22.70;99.70;;;;;;7398872;19;20361;-77
2022/09/02 08:02:00;;;;;;;4.80;1.65;;;23.00;99.40;;;;;;7398855;19;20081;-78
2022/09/02 08:04:26;;;;;;;2.33;1.42;;;23.10;99.40;;;;;;7399511;19;20019;-78
2022/09/02 08:06:54;;;;;;;1.98;1.20;;;23.30;99.10;;;;;;7397519;19;20036;-78
2022/09/02 08:09:21;;;;;;;2.60;1.60;;;23.30;98.90;;;;;;7397647;19;20022;-78
2022/09/02 08:11:48;;;;;;;1.88;1.40;;;23.10;98.70;;;;;;7393907;19;20011;-78
2022/09/02 08:14:20;;;;;;;1.23;0.80;;;22.90;98.90;;;;;;7398066;19;20014;-78
2022/09/02 08:16:47;;;;;;;3.47;1.70;;;23.20;98.30;;;;;;7396900;19;20016;-78
2022/09/02 08:19:14;;;;;;;1.77;1.40;;;23.20;99.00;;;;;;7395162;19;20064;-78
2022/09/02 08:21:41;;;;;;;2.72;1.63;;;22.40;99.20;;;;;;7397900;19;20382;-78
2022/09/02 08:24:06;;;;;;;6.70;1.73;;;21.60;99.90;;;;;;7396770;19;20385;-77
2022/09/02 08:26:35;;;;;;;4.38;1.60;;;20.90;99.90;;;;;;7398257;19;20021;-78
2022/09/02 08:29:06;;;;;;;2.40;1.55;;;20.50;99.90;;;;;;7395900;19;20015;-78
2022/09/02 08:31:32;;;;;;;3.55;1.30;;;20.30;99.90;;;;;;7396470;19;20078;-77
2022/09/02 08:33:59;;;;;;;2.60;1.95;;;20.30;99.90;;;;;;7396554;19;20015;-77
2022/09/02 08:36:26;;;;;;;3.65;1.60;;;20.10;99.90;;;;;;7397240;19;20125;-77
2022/09/02 08:38:52;;;;;;;2.10;1.55;;;20.10;99.90;;;;;;7396539;19;20026;-78
2022/09/02 08:41:29;;;;;;;4.03;1.60;;;20.00;99.90;;;;;;7395978;19;20042;-77
2022/09/02 08:43:58;;;;;;;3.05;1.30;;;20.00;99.90;;;;;;7395934;19;20018;-77
2022/09/02 08:46:27;;;;;;;4.07;1.50;;;20.00;99.90;;;;;;7395688;19;20017;-77
2022/09/02 08:49:03;;;;;;;2.90;1.33;;;20.10;99.90;;;;;;7394483;19;20017;-77
2022/09/02 08:51:47;;;;;;;4.43;1.30;;;20.10;99.90;;;;;;7395414;19;20015;-78
2022/09/02 08:54:40;;;;;;;3.67;1.55;;;20.20;99.90;;;;;;7397677;19;20054;-77
2022/09/02 08:57:08;;;;;;;5.67;1.70;;;20.30;99.90;;;;;;7395869;19;20018;-77
2022/09/02 08:59:36;;;;;;;2.05;1.02;;;20.30;99.90;;;;;;7391529;19;21043;-78
2022/09/02 09:02:21;;;;;;;2.03;1.20;;;20.30;99.90;;;;;;7392739;19;20475;-77
2022/09/02 09:05:05;;;;;;;2.15;1.35;;;20.40;99.90;;;;;;7396245;19;20352;-77
2022/09/02 09:07:46;;;;;;;4.07;1.77;;;20.60;99.90;;;;;;7396467;19;20023;-78
2022/09/02 09:10:31;;;;;;;3.25;1.35;;;20.70;99.90;;;;;;7394707;19;20040;-77
2022/09/02 09:13:10;;;;;;;5.65;1.67;;;20.80;99.90;;;;;;7397530;19;20035;-78
2022/09/02 09:15:50;;;;;;;3.38;1.30;;;20.90;99.90;;;;;;7398440;19;20496;-77
2022/09/02 09:18:22;;;;;;;6.38;1.55;;;21.00;99.90;;;;;;7394616;19;20021;-78
2022/09/02 09:20:49;;;;;;;2.40;1.10;;;21.10;99.90;;;;;;7394214;19;20369;-78
2022/09/02 09:23:29;;;;;;;5.30;1.70;;;21.10;99.90;;;;;;7393372;19;20839;-77
2022/09/02 09:26:09;;;;;;;2.85;1.50;;;21.20;99.90;;;;;;7393996;19;20014;-77
2022/09/02 09:28:40;;;;;;;3.03;1.30;;;21.30;99.90;;;;;;7393674;19;20022;-79
2022/09/02 09:31:11;;;;;;;3.50;1.00;;;21.50;99.90;;;;;;7394800;19;20014;-77
2022/09/02 09:33:37;;;;;;;3.58;1.30;;;21.50;99.90;;;;;;7392798;19;20010;-77
2022/09/02 09:36:04;;;;;;;4.53;1.65;;;21.70;99.90;;;;;;7393366;19;20006;-78
2022/09/02 09:38:35;;;;;;;7.30;1.60;;;21.70;99.60;;;;;;7394487;19;20019;-78
2022/09/02 09:41:19;;;;;;;3.58;1.70;;;21.90;99.60;;;;;;7395996;19;20014;-77
2022/09/02 09:43:45;;;;;;;2.53;1.00;;;21.90;99.40;;;;;;7392685;19;20022;-77
2022/09/02 09:46:31;;;;;;;4.82;1.40;;;22.00;99.90;;;;;;7393502;19;20081;-78
2022/09/02 09:48:57;;;;;;;3.55;1.40;;;22.20;99.90;;;;;;7394780;19;20086;-78
2022/09/02 09:51:23;;;;;;;3.60;1.48;;;22.20;99.40;;;;;;7391586;19;20019;-78
2022/09/02 09:53:49;;;;;;;2.78;1.60;;;22.40;99.00;;;;;;7391290;19;20365;-78
2022/09/02 09:56:15;;;;;;;2.63;1.25;;;22.30;98.50;;;;;;7393282;19;20018;-78
2022/09/02 09:58:44;;;;;;;4.97;1.60;;;22.20;98.70;;;;;;7392103;19;20490;-78
2022/09/02 10:01:29;;;;;;;2.80;1.40;;;22.20;98.90;;;;;;7395826;19;20089;-77
2022/09/02 10:04:03;;;;;;;2.65;1.60;;;22.30;99.10;;;;;;7392810;19;20010;-78
2022/09/02 10:06:34;;;;;;;3.63;1.35;;;22.50;98.50;;;;;;7396817;19;20074;-77
2022/09/02 10:08:59;;;;;;;3.75;1.58;;;22.40;98.40;;;;;;7392847;19;20011;-78
2022/09/02 10:11:28;;;;;;;7.15;1.83;;;22.40;98.60;;;;;;7395505;19;20053;-79
2022/09/02 10:14:08;;;;;;;4.80;1.70;;;22.50;98.00;;;;;;7393995;19;20091;-77
2022/09/02 10:16:59;;;;;;;3.00;1.30;;;22.40;97.60;;;;;;7393540;19;20014;-77
2022/09/02 10:19:38;;;;;;;3.65;1.30;;;22.50;97.40;;;;;;7390665;19;20007;-77
2022/09/02 10:22:42;;;;;;;4.50;1.50;;;22.60;97.80;;;;;;7392386;19;20367;-77
2022/09/02 10:25:29;;;;;;;1.88;1.30;;;22.80;97.70;;;;;;7391718;19;20027;-77
2022/09/02 10:28:45;;;;;;;4.35;1.50;;;22.90;97.50;;;;;;7396413;19;20025;-77
2022/09/02 10:31:22;;;;;;;1.65;0.98;;;22.90;97.30;;;;;;7390179;19;20018;-77
2022/09/02 10:33:50;;;;;;;3.67;1.30;;;22.90;96.80;;;;;;7388644;19;20046;-77
2022/09/02 10:36:27;;;;;;;2.17;1.27;;;23.10;97.10;;;;;;7391887;19;20014;-77
2022/09/02 10:38:59;;;;;;;2.38;1.10;;;23.10;96.80;;;;;;7392286;19;20023;-77
2022/09/02 10:41:31;;;;;;;4.87;0.93;;;22.90;95.80;;;;;;7393967;19;20507;-78
2022/09/02 10:44:24;;;;;;;5.65;1.20;;;23.00;96.00;;;;;;7390274;19;20286;-77
2022/09/02 10:47:01;;;;;;;3.00;1.00;;;23.10;96.90;;;;;;7391312;19;20010;-78
2022/09/02 10:49:54;;;;;;;2.42;1.00;;;23.30;96.30;;;;;;7393359;19;20032;-77
2022/09/02 10:52:33;;;;;;;;;;;23.30;95.50;;;;;;7390502;19;20378;-77
2022/09/02 10:55:20;;;;;;;1.45;1.00;;;23.40;96.20;;;;;;7392044;19;20322;-79
2022/09/02 10:57:59;;;;;;;1.35;0.80;;;23.50;95.60;;;;;;7400492;19;20011;-77
2022/09/02 11:00:27;;;;;;;2.45;0.80;;;23.60;95.50;;;;;;7397105;19;20018;-78
2022/09/02 11:02:55;;;;;;;2.85;1.00;;;23.60;95.20;;;;;;7396949;19;20500;-78
2022/09/02 11:05:26;;;;;;;2.75;1.05;;;23.60;95.00;;;;;;7399962;19;20108;-77
2022/09/02 11:08:16;;;;;;;2.35;0.90;;;23.60;94.00;;;;;;7398459;19;20011;-76
2022/09/02 11:11:20;;;;;;;4.10;1.05;;;23.60;94.80;;;;;;7391973;19;20056;-76
2022/09/02 11:13:52;;;;;;;5.47;1.35;;;23.70;94.60;;;;;;7389030;19;20014;-77
2022/09/02 11:16:32;;;;;;;1.33;1.00;;;23.80;94.30;;;;;;7395736;19;20019;-76
2022/09/02 11:19:08;;;;;;;1.83;0.80;;;23.90;94.70;;;;;;7392915;19;20018;-78
2022/09/02 11:22:09;;;;;;;2.92;0.90;;;23.90;93.80;;;;;;7394852;19;20042;-78
2022/09/02 11:24:54;;;;;;;4.72;1.00;;;23.80;93.80;;;;;;7400889;19;20015;-78
2022/09/02 11:27:50;;;;;;;1.95;0.95;;;23.90;94.40;;;;;;7398456;19;20018;-77
2022/09/02 11:30:22;;;;;;;5.15;0.98;;;23.90;94.60;;;;;;7394616;19;20616;-77
2022/09/02 11:33:13;;;;;;;2.45;0.90;;;23.90;93.80;;;;;;7396729;19;20081;-77
2022/09/02 11:35:41;;;;;;;3.30;0.80;;;24.00;93.70;;;;;;7395957;19;20023;-77
2022/09/02 11:38:34;;;;;;;3.42;1.00;;;24.00;94.30;;;;;;7398924;19;20014;-76
2022/09/02 11:41:20;;;;;;;2.97;0.98;;;24.00;93.10;;;;;;7398193;19;20030;-75
2022/09/02 11:43:52;;;;;;;2.58;0.90;;;24.20;94.20;;;;;;7399240;19;20014;-76
2022/09/02 11:46:49;;;;;;;1.93;1.13;;;24.30;93.10;;;;;;7399500;19;20014;-75
2022/09/02 11:49:55;;;;;;;2.55;0.75;;;24.30;93.40;;;;;;7397939;19;20286;-76
2022/09/02 11:52:32;;;;;;;6.10;1.00;;;24.40;92.80;;;;;;7397992;19;20070;-76
2022/09/02 11:55:14;;;;;;;4.90;0.88;;;24.40;92.30;;;;;;7398424;19;20019;-76
2022/09/02 11:57:40;;;;;;;3.47;0.98;;;24.30;91.90;;;;;;7398189;19;20028;-75
2022/09/02 12:00:23;;;;;;;4.50;0.80;;;24.30;92.50;;;;;;7398802;19;20480;-76
2022/09/02 12:02:57;;;;;;;1.95;0.80;;;24.30;92.30;;;;;;7396168;19;20010;-76
2022/09/02 12:05:29;;;;;;;2.15;1.00;;;24.20;92.60;;;;;;7398905;19;20078;-76
2022/09/02 12:07:57;;;;;;;1.98;0.95;;;24.20;91.90;;;;;;7394274;19;20626;-75
2022/09/02 12:10:47;;;;;;;3.17;0.80;;;24.30;92.60;;;;;;7399280;19;20014;-76
2022/09/02 12:13:39;;;;;;;2.75;0.85;;;24.30;92.70;;;;;;7394051;19;20103;-76
2022/09/02 12:16:14;;;;;;;2.43;0.80;;;24.40;91.90;;;;;;7396691;19;20033;-76
2022/09/02 12:19:07;;;;;;;2.50;0.77;;;24.40;92.20;;;;;;7393517;19;20011;-77
2022/09/02 12:21:37;;;;;;;1.70;0.70;;;24.50;92.10;;;;;;7395084;19;20017;-76
2022/09/02 12:24:18;;;;;;;3.83;0.80;;;24.60;92.20;;;;;;7397241;19;20019;-76
2022/09/02 12:26:44;;;;;;;5.43;0.70;;;24.60;91.80;;;;;;7394922;19;20033;-77
2022/09/02 12:29:21;;;;;;;1.67;0.80;;;24.50;91.20;;;;;;7396749;19;20051;-76
2022/09/02 12:31:51;;;;;;;2.78;0.90;;;24.40;90.60;;;;;;7394947;19;20014;-78
2022/09/02 12:34:23;;;;;;;3.38;0.70;;;24.40;91.50;;;;;;7388756;19;20046;-77
2022/09/02 12:36:51;;;;;;;3.23;0.80;;;24.40;90.80;;;;;;7395022;19;20010;-76
2022/09/02 12:39:26;;;;;;;2.05;0.60;;;24.50;90.60;;;;;;7394594;19;20535;-76
2022/09/02 12:42:10;;;;;;;0.88;0.60;;;24.60;90.50;;;;;;7395446;19;20014;-77
2022/09/02 12:44:43;;;;;;;2.35;0.60;;;24.50;90.50;;;;;;7393806;19;20097;-76
2022/09/02 12:47:16;;;;;;;2.95;0.70;;;24.60;90.90;;;;;;7390871;19;20034;-77
2022/09/02 12:49:45;;;;;;;2.47;0.68;;;24.60;90.70;;;;;;7397213;19;20018;-77
2022/09/02 12:52:32;;;;;;;4.90;0.80;;;24.60;91.10;;;;;;7394392;19;20046;-77
2022/09/02 12:55:08;;;;;;;5.57;0.88;;;24.70;90.80;;;;;;7394612;19;20464;-77
2022/09/02 12:57:42;;;;;;;1.83;0.75;;;24.70;89.50;;;;;;7396257;19;20021;-77
2022/09/02 13:00:14;;;;;;;2.75;0.82;;;24.60;89.10;;;;;;7395309;19;20018;-77
2022/09/02 13:02:42;;;;;;;3.47;0.80;;;24.50;90.00;;;;;;7391965;19;20022;-77
2022/09/02 13:05:23;;;;;;;6.47;0.85;;;24.60;90.30;;;;;;7394566;19;20030;-77
2022/09/02 13:08:10;;;;;;;1.23;0.77;;;24.70;90.20;;;;;;7395182;19;20014;-78
2022/09/02 13:10:39;;;;;;;3.10;0.82;;;24.70;89.10;;;;;;7393383;19;20007;-77